Aviation Digital Data Service (ADDS)

Output produced by METARs form (0412 UTC 26 April 2019)
found at http://www.aviationweather.gov/metar/data/
 
Forecast for: GVAC (SAL ISL/AMILCAR , CV)
Text: TAF GVAC 252300Z 2600/2706 02010KT 9999 SCT015
Forecast period: 0000 UTC 26 April 2019 to 0600 UTC 27 April 2019
Forecast type: FROM: standard forecast or significant change
Winds: from the NNE (20 degrees) at 12 MPH (10 knots; 5.1 m/s)
Visibility: 6 or more miles 10+ km)
Ceiling: at least 12,000 feet AGL
Clouds: scattered clouds at 1500 feet AGL
Weather: no significant weather forecast for this period